createdAt,value
2019-05-03T00:02:54.298Z,8.00
2019-05-03T00:05:28.910Z,8.10
2019-05-03T00:08:07.510Z,8.00
2019-05-03T00:10:38.650Z,7.90
2019-05-03T00:13:08.838Z,8.00
2019-05-03T00:15:53.599Z,7.90
2019-05-03T00:18:23.629Z,7.80
2019-05-03T00:20:53.938Z,7.80
2019-05-03T00:23:23.926Z,7.90
2019-05-03T00:25:53.983Z,7.90
2019-05-03T00:28:23.966Z,7.80
2019-05-03T00:30:55.184Z,7.90
2019-05-03T00:33:25.668Z,7.80
2019-05-03T00:36:22.377Z,7.90
2019-05-03T00:38:55.009Z,8.00
2019-05-03T00:41:24.990Z,8.10
2019-05-03T00:43:55.043Z,8.10
2019-05-03T00:46:24.951Z,8.20
2019-05-03T00:48:55.012Z,8.20
2019-05-03T00:51:25.313Z,8.10
2019-05-03T00:53:55.215Z,8.20
2019-05-03T00:56:25.203Z,8.10
2019-05-03T00:58:58.380Z,8.10
2019-05-03T01:01:28.353Z,7.90
2019-05-03T01:03:58.306Z,7.50
2019-05-03T01:06:28.307Z,7.40
2019-05-03T01:08:58.194Z,7.20
2019-05-03T01:11:28.168Z,7.20
2019-05-03T01:13:58.134Z,7.20
2019-05-03T01:16:28.246Z,7.10
2019-05-03T01:18:58.131Z,7.00
2019-05-03T01:21:27.941Z,7.00
2019-05-03T01:23:57.929Z,6.90
2019-05-03T01:26:27.874Z,6.90
2019-05-03T01:28:57.846Z,6.90
2019-05-03T01:31:28.744Z,6.80
2019-05-03T01:33:58.722Z,6.80
2019-05-03T01:36:28.688Z,6.90
2019-05-03T01:38:58.928Z,6.80
2019-05-03T01:41:28.819Z,6.70
2019-05-03T01:43:58.876Z,6.80
2019-05-03T01:46:28.986Z,6.80
2019-05-03T01:49:24.048Z,7.00
2019-05-03T01:52:24.870Z,7.00
2019-05-03T01:54:54.736Z,6.70
2019-05-03T01:57:24.931Z,6.70
2019-05-03T01:59:54.897Z,6.60
2019-05-03T02:02:35.048Z,6.50
2019-05-03T02:05:32.080Z,6.40
2019-05-03T02:08:02.282Z,6.40
2019-05-03T02:10:32.585Z,6.30
2019-05-03T02:13:02.806Z,6.20
2019-05-03T02:15:32.771Z,6.30
2019-05-03T02:18:03.865Z,6.50
2019-05-03T02:20:33.970Z,6.50
2019-05-03T02:23:04.232Z,6.50
2019-05-03T02:25:34.421Z,6.60
2019-05-03T02:28:04.408Z,6.70
2019-05-03T02:30:34.669Z,6.70
2019-05-03T02:33:04.659Z,6.50
2019-05-03T02:35:34.848Z,6.40
2019-05-03T02:38:04.864Z,6.30
2019-05-03T02:40:34.757Z,6.40
2019-05-03T02:43:17.369Z,6.50
2019-05-03T02:45:56.779Z,6.60
2019-05-03T02:48:36.215Z,6.70
2019-05-03T02:51:06.534Z,6.70
2019-05-03T02:53:37.369Z,6.60
2019-05-03T02:56:18.211Z,6.70
2019-05-03T02:58:39.151Z,6.70
2019-05-03T03:01:09.549Z,6.80
2019-05-03T03:03:39.848Z,6.80
2019-05-03T03:06:10.018Z,6.80
2019-05-03T03:08:41.759Z,6.80
2019-05-03T03:11:11.710Z,6.70
2019-05-03T03:13:42.374Z,6.60
2019-05-03T03:16:12.257Z,6.70
2019-05-03T03:18:45.402Z,6.60
2019-05-03T03:21:17.439Z,6.50
2019-05-03T03:24:01.714Z,6.50
2019-05-03T03:26:37.992Z,6.40
2019-05-03T03:29:05.660Z,6.40
2019-05-03T03:31:57.920Z,6.30
2019-05-03T03:34:30.605Z,6.40
2019-05-03T03:37:06.448Z,6.30
2019-05-03T03:39:36.015Z,6.20
2019-05-03T03:42:05.504Z,6.40
2019-05-03T03:44:36.532Z,6.40
2019-05-03T03:47:07.101Z,6.50
2019-05-03T03:49:40.471Z,6.60
2019-05-03T03:52:11.745Z,6.70
2019-05-03T03:54:45.726Z,6.80
2019-05-03T03:57:17.604Z,6.90
2019-05-03T03:59:47.775Z,7.00
2019-05-03T04:02:18.546Z,6.90
2019-05-03T04:04:48.947Z,6.90
2019-05-03T04:07:19.014Z,6.70
2019-05-03T04:09:49.186Z,6.50
2019-05-03T04:12:20.537Z,6.40
2019-05-03T04:14:56.756Z,6.50
2019-05-03T04:17:58.512Z,6.70
2019-05-03T04:20:35.828Z,6.80
2019-05-03T04:23:06.517Z,6.60
2019-05-03T04:25:37.245Z,6.50
2019-05-03T04:28:08.333Z,6.50
2019-05-03T04:30:38.354Z,6.50
2019-05-03T04:33:08.626Z,6.50
2019-05-03T04:35:38.865Z,6.50
2019-05-03T04:38:08.847Z,6.70
2019-05-03T04:40:38.829Z,6.50
2019-05-03T04:43:09.017Z,6.50
2019-05-03T04:45:39.043Z,6.50
2019-05-03T04:48:09.049Z,6.50
2019-05-03T04:50:39.010Z,6.50
2019-05-03T04:53:09.256Z,6.50
2019-05-03T04:55:39.707Z,6.50
2019-05-03T04:58:09.727Z,6.30
2019-05-03T05:00:39.686Z,6.30
2019-05-03T05:03:09.674Z,6.40
2019-05-03T05:05:40.087Z,6.50
2019-05-03T05:08:10.155Z,6.40
2019-05-03T05:10:40.034Z,6.30
2019-05-03T05:13:10.032Z,6.20
2019-05-03T05:15:40.375Z,6.20
2019-05-03T05:18:16.229Z,6.30
2019-05-03T05:20:55.505Z,6.10
2019-05-03T05:23:25.875Z,6.10
2019-05-03T05:26:02.881Z,6.10
2019-05-03T05:28:49.680Z,6.20
2019-05-03T05:31:19.587Z,6.20
2019-05-03T05:33:49.632Z,6.40
2019-05-03T05:36:19.615Z,6.40
2019-05-03T05:38:49.667Z,6.30
2019-05-03T05:41:19.643Z,6.40
2019-05-03T05:43:49.808Z,6.50
2019-05-03T05:46:21.449Z,6.50
2019-05-03T05:48:51.658Z,6.50
2019-05-03T05:51:21.579Z,6.60
2019-05-03T05:53:51.598Z,6.50
2019-05-03T05:56:35.325Z,6.50
2019-05-03T05:59:15.090Z,6.50
2019-05-03T06:01:55.457Z,6.50
2019-05-03T06:04:25.464Z,6.50
2019-05-03T06:07:14.877Z,6.60
2019-05-03T06:09:56.226Z,6.60
2019-05-03T06:12:32.877Z,6.60
2019-05-03T06:15:07.860Z,6.60
2019-05-03T06:17:45.930Z,6.60
2019-05-03T06:20:45.186Z,6.80
2019-05-03T06:23:28.631Z,6.90
2019-05-03T06:25:59.313Z,6.80
2019-05-03T06:28:35.275Z,6.90
2019-05-03T06:31:15.016Z,7.10
2019-05-03T06:33:45.141Z,6.90
2019-05-03T06:36:15.379Z,6.90
2019-05-03T06:38:45.241Z,6.80
2019-05-03T06:41:16.310Z,6.80
2019-05-03T06:43:48.684Z,6.90
2019-05-03T06:46:25.356Z,6.90
2019-05-03T06:48:51.759Z,6.80
2019-05-03T06:51:21.651Z,7.00
2019-05-03T06:53:51.932Z,7.10
2019-05-03T06:56:25.052Z,7.20
2019-05-03T06:58:55.138Z,7.30
2019-05-03T07:01:31.610Z,7.00
2019-05-03T07:04:09.618Z,7.10
2019-05-03T07:07:01.824Z,7.30
2019-05-03T07:09:39.788Z,7.60
2019-05-03T07:12:09.758Z,7.60
2019-05-03T07:14:39.733Z,7.70
2019-05-03T07:17:09.717Z,8.00
2019-05-03T07:19:40.049Z,8.10
2019-05-03T07:22:10.045Z,8.40
2019-05-03T07:24:40.950Z,8.10
2019-05-03T07:27:12.103Z,7.90
2019-05-03T07:29:42.050Z,7.80
2019-05-03T07:32:12.030Z,7.70
2019-05-03T07:34:45.162Z,7.90
2019-05-03T07:37:14.948Z,8.20
2019-05-03T07:39:45.298Z,8.40
2019-05-03T07:42:15.726Z,8.90
2019-05-03T07:44:46.769Z,9.10
2019-05-03T07:47:16.753Z,8.90
2019-05-03T07:49:46.685Z,8.80
2019-05-03T07:52:16.656Z,8.60
2019-05-03T07:54:46.789Z,8.70
2019-05-03T07:57:41.833Z,9.20
2019-05-03T08:00:14.931Z,9.00
2019-05-03T08:02:45.330Z,9.00
2019-05-03T08:05:15.602Z,9.00
2019-05-03T08:07:46.251Z,8.60
2019-05-03T08:10:16.638Z,8.60
2019-05-03T08:12:46.679Z,8.80
2019-05-03T08:15:16.765Z,9.50
2019-05-03T08:17:46.764Z,9.50
2019-05-03T08:20:16.865Z,9.30
2019-05-03T08:22:47.765Z,9.30
2019-05-03T08:25:17.797Z,8.60
2019-05-03T08:27:48.077Z,8.50
2019-05-03T08:30:24.986Z,8.80
2019-05-03T08:33:07.604Z,8.80
2019-05-03T08:35:40.659Z,9.10
2019-05-03T08:38:10.644Z,9.20
2019-05-03T08:40:46.811Z,9.40
2019-05-03T08:43:16.788Z,9.10
2019-05-03T08:45:46.758Z,8.50
2019-05-03T08:48:16.770Z,8.40
2019-05-03T08:50:46.632Z,8.90
2019-05-03T08:53:16.586Z,9.00
2019-05-03T08:55:46.575Z,9.70
2019-05-03T08:58:16.546Z,10.20
2019-05-03T09:00:46.533Z,10.30
2019-05-03T09:03:16.514Z,10.20
2019-05-03T09:05:46.655Z,10.10
2019-05-03T09:08:16.687Z,9.60
2019-05-03T09:10:54.547Z,9.30
2019-05-03T09:13:25.174Z,9.70
2019-05-03T09:15:55.503Z,9.90
2019-05-03T09:18:25.975Z,10.50
2019-05-03T09:20:56.031Z,10.90
2019-05-03T09:23:26.214Z,11.60
2019-05-03T09:25:57.211Z,11.00
2019-05-03T09:28:29.269Z,10.60
2019-05-03T09:30:59.781Z,10.70
2019-05-03T09:33:30.000Z,10.80
2019-05-03T09:36:00.371Z,10.60
2019-05-03T09:38:31.477Z,10.40
2019-05-03T09:41:01.482Z,10.30
2019-05-03T09:43:31.489Z,10.00
2019-05-03T09:46:01.471Z,10.20
2019-05-03T09:48:31.539Z,10.40
2019-05-03T09:51:01.778Z,10.50
2019-05-03T09:53:35.985Z,10.40
2019-05-03T09:56:05.973Z,10.40
2019-05-03T09:58:38.117Z,10.50
2019-05-03T10:01:08.760Z,10.50
2019-05-03T10:03:38.774Z,10.40
2019-05-03T10:06:08.770Z,10.20
2019-05-03T10:08:38.772Z,10.10
2019-05-03T10:11:11.909Z,10.70
2019-05-03T10:13:42.312Z,11.10
2019-05-03T10:16:15.320Z,11.10
2019-05-03T10:18:45.961Z,11.00
2019-05-03T10:21:16.325Z,10.50
2019-05-03T10:23:46.684Z,10.60
2019-05-03T10:26:16.950Z,10.60
2019-05-03T10:28:46.963Z,10.60
2019-05-03T10:31:17.262Z,10.30
2019-05-03T10:34:05.929Z,10.30
2019-05-03T10:36:36.055Z,10.30
2019-05-03T10:39:06.617Z,10.20
2019-05-03T10:41:38.210Z,9.80
2019-05-03T10:44:08.271Z,10.60
2019-05-03T10:46:39.081Z,11.20
2019-05-03T10:49:09.235Z,11.00
2019-05-03T10:51:45.209Z,11.10
2019-05-03T10:54:15.447Z,11.30
2019-05-03T10:57:10.569Z,11.40
2019-05-03T10:59:40.614Z,11.70
2019-05-03T11:02:22.296Z,12.30
2019-05-03T11:04:52.227Z,11.60
2019-05-03T11:07:22.536Z,12.00
2019-05-03T11:09:56.039Z,11.70
2019-05-03T11:12:27.217Z,11.80
2019-05-03T11:14:57.355Z,10.70
2019-05-03T11:17:27.351Z,10.70
2019-05-03T11:19:57.350Z,10.90
2019-05-03T11:22:27.315Z,11.70
2019-05-03T11:24:57.309Z,12.20
2019-05-03T11:27:35.392Z,11.90
2019-05-03T11:30:09.509Z,11.90
2019-05-03T11:32:55.466Z,11.80
2019-05-03T11:35:39.951Z,11.50
2019-05-03T11:38:15.181Z,11.30
2019-05-03T11:40:45.553Z,10.70
2019-05-03T11:43:17.699Z,10.80
2019-05-03T11:45:47.712Z,10.80
2019-05-03T11:48:18.334Z,11.10
2019-05-03T11:50:48.946Z,11.40
2019-05-03T11:53:18.909Z,11.40
2019-05-03T11:55:48.801Z,11.60
2019-05-03T11:58:22.632Z,12.10
2019-05-03T12:01:19.701Z,11.80
2019-05-03T12:03:52.588Z,11.20
2019-05-03T12:06:24.937Z,11.30
2019-05-03T12:08:55.395Z,11.10
2019-05-03T12:11:26.633Z,11.40
2019-05-03T12:14:12.298Z,11.00
2019-05-03T12:17:14.343Z,10.80
2019-05-03T12:19:27.526Z,10.70
2019-05-03T12:21:53.080Z,11.00
2019-05-03T12:24:26.176Z,11.00
2019-05-03T12:26:55.823Z,11.10
2019-05-03T12:29:25.794Z,11.30
2019-05-03T12:31:55.718Z,11.10
2019-05-03T12:34:25.798Z,11.10
2019-05-03T12:36:55.844Z,10.70
2019-05-03T12:39:30.074Z,10.60
2019-05-03T12:41:57.648Z,10.30
2019-05-03T12:44:27.607Z,10.30
2019-05-03T12:46:57.506Z,10.10
2019-05-03T12:49:27.414Z,10.10
2019-05-03T12:51:57.371Z,10.30
2019-05-03T12:54:27.433Z,10.30
2019-05-03T12:56:57.491Z,10.20
2019-05-03T12:59:49.625Z,10.70
2019-05-03T13:02:33.942Z,11.60
2019-05-03T13:05:04.829Z,11.50
2019-05-03T13:07:49.221Z,11.10
2019-05-03T13:10:22.660Z,11.00
2019-05-03T13:12:53.325Z,11.10
2019-05-03T13:15:24.479Z,11.80
2019-05-03T13:17:55.348Z,12.00
2019-05-03T13:20:25.753Z,11.30
2019-05-03T13:22:55.991Z,11.00
2019-05-03T13:25:25.998Z,11.10
2019-05-03T13:27:56.327Z,11.00
2019-05-03T13:30:26.292Z,11.20
2019-05-03T13:32:56.248Z,11.20
2019-05-03T13:35:26.209Z,11.10
2019-05-03T13:37:56.380Z,11.00
2019-05-03T13:40:27.122Z,11.30
2019-05-03T13:43:03.505Z,11.10
2019-05-03T13:45:28.758Z,11.20
2019-05-03T13:47:58.867Z,11.20
2019-05-03T13:50:29.617Z,11.40
2019-05-03T13:52:59.602Z,11.40
2019-05-03T13:55:29.907Z,11.10
2019-05-03T13:58:00.403Z,11.00
2019-05-03T14:00:30.453Z,11.00
2019-05-03T14:03:00.527Z,11.00
2019-05-03T14:05:30.479Z,10.80
2019-05-03T14:08:00.476Z,11.20
2019-05-03T14:10:30.774Z,11.40
2019-05-03T14:13:01.039Z,12.40
2019-05-03T14:15:31.476Z,12.50
2019-05-03T14:18:01.412Z,12.10
2019-05-03T14:20:56.388Z,12.10
2019-05-03T14:23:26.628Z,11.90
2019-05-03T14:25:57.046Z,12.10
2019-05-03T14:28:27.041Z,12.80
2019-05-03T14:30:57.016Z,12.80
2019-05-03T14:33:28.433Z,12.60
2019-05-03T14:35:58.561Z,11.90
2019-05-03T14:38:28.614Z,11.60
2019-05-03T14:40:58.914Z,11.50
2019-05-03T14:43:28.817Z,11.40
2019-05-03T14:45:58.794Z,11.50
2019-05-03T14:48:28.691Z,11.30
2019-05-03T14:50:58.672Z,11.30
2019-05-03T14:53:29.098Z,11.10
2019-05-03T14:56:07.853Z,11.10
2019-05-03T14:59:02.217Z,11.10
2019-05-03T15:01:41.149Z,11.10
2019-05-03T15:04:11.048Z,11.50
2019-05-03T15:06:41.443Z,11.60
2019-05-03T15:09:11.467Z,11.70
2019-05-03T15:11:41.450Z,11.80
2019-05-03T15:14:11.623Z,11.70
2019-05-03T15:16:41.549Z,11.30
2019-05-03T15:19:11.473Z,11.20
2019-05-03T15:21:41.640Z,11.30
2019-05-03T15:24:11.522Z,11.30
2019-05-03T15:26:41.482Z,11.30
2019-05-03T15:29:11.481Z,11.00
2019-05-03T15:31:41.744Z,11.00
2019-05-03T15:34:11.739Z,11.00
2019-05-03T15:36:41.750Z,10.90
2019-05-03T15:39:11.720Z,10.70
2019-05-03T15:41:41.809Z,10.60
2019-05-03T15:44:49.310Z,10.50
2019-05-03T15:47:25.276Z,10.50
2019-05-03T15:49:55.428Z,10.50
2019-05-03T15:52:25.570Z,10.40
2019-05-03T15:54:55.860Z,10.40
2019-05-03T15:57:25.854Z,10.30
2019-05-03T15:59:55.827Z,10.20
2019-05-03T16:02:26.086Z,10.30
2019-05-03T16:04:58.642Z,10.20
2019-05-03T16:07:28.125Z,10.40
2019-05-03T16:09:58.096Z,10.40
2019-05-03T16:12:28.432Z,10.30
2019-05-03T16:14:58.495Z,10.20
2019-05-03T16:17:28.404Z,10.20
2019-05-03T16:19:58.440Z,10.30
2019-05-03T16:22:28.355Z,10.30
2019-05-03T16:24:58.439Z,10.40
2019-05-03T16:27:47.538Z,10.50
2019-05-03T16:30:36.724Z,10.70
2019-05-03T16:33:07.364Z,10.70
2019-05-03T16:35:37.851Z,10.60
2019-05-03T16:38:08.230Z,10.80
2019-05-03T16:40:38.497Z,10.70
2019-05-03T16:43:08.772Z,10.40
2019-05-03T16:45:39.053Z,10.40
2019-05-03T16:48:09.049Z,10.40
2019-05-03T16:50:39.188Z,10.50
2019-05-03T16:53:09.426Z,10.40
2019-05-03T16:55:39.995Z,10.40
2019-05-03T16:58:09.987Z,10.40
2019-05-03T17:00:39.978Z,10.40
2019-05-03T17:03:10.750Z,10.20
2019-05-03T17:06:00.797Z,10.10
2019-05-03T17:08:41.027Z,10.20
2019-05-03T17:11:14.757Z,10.20
2019-05-03T17:13:47.635Z,10.00
2019-05-03T17:16:17.160Z,10.10
2019-05-03T17:18:48.183Z,10.00
2019-05-03T17:21:18.153Z,10.10
2019-05-03T17:23:48.343Z,10.00
2019-05-03T17:26:18.337Z,10.00
2019-05-03T17:28:48.512Z,10.00
2019-05-03T17:31:19.082Z,9.90
2019-05-03T17:33:53.268Z,9.80
2019-05-03T17:36:20.983Z,10.00
2019-05-03T17:38:55.001Z,9.90
2019-05-03T17:41:48.420Z,9.70
2019-05-03T17:44:22.925Z,9.70
2019-05-03T17:46:54.819Z,9.70
2019-05-03T17:49:24.547Z,9.70
2019-05-03T17:52:20.773Z,9.70
2019-05-03T17:55:10.087Z,9.70
2019-05-03T17:58:04.482Z,9.70
2019-05-03T18:00:49.711Z,9.60
2019-05-03T18:03:20.732Z,9.50
2019-05-03T18:05:59.153Z,9.50
2019-05-03T18:08:44.758Z,9.50
2019-05-03T18:11:17.778Z,9.50
2019-05-03T18:13:47.793Z,9.60
2019-05-03T18:16:17.734Z,9.50
2019-05-03T18:18:47.857Z,9.50
2019-05-03T18:21:18.257Z,9.40
2019-05-03T18:23:48.263Z,9.40
2019-05-03T18:26:18.813Z,9.40
2019-05-03T18:28:48.711Z,9.30
2019-05-03T18:31:18.727Z,9.40
2019-05-03T18:33:48.717Z,9.30
2019-05-03T18:36:18.685Z,9.30
2019-05-03T18:38:48.716Z,9.30
2019-05-03T18:41:19.029Z,9.20
2019-05-03T18:44:08.558Z,9.10
2019-05-03T18:46:44.602Z,9.20
2019-05-03T18:49:14.986Z,9.10
2019-05-03T18:51:44.989Z,9.10
2019-05-03T18:54:15.638Z,9.10
2019-05-03T18:56:46.080Z,9.10
2019-05-03T18:59:16.080Z,9.00
2019-05-03T19:01:46.134Z,9.00
2019-05-03T19:04:34.089Z,9.00
2019-05-03T19:07:03.769Z,9.00
2019-05-03T19:09:38.638Z,9.00
2019-05-03T19:12:21.477Z,8.90
2019-05-03T19:14:51.546Z,8.80
2019-05-03T19:17:35.560Z,8.70
2019-05-03T19:20:08.495Z,8.80
2019-05-03T19:22:38.867Z,8.80
2019-05-03T19:25:09.341Z,8.70
2019-05-03T19:27:39.491Z,8.70
2019-05-03T19:30:10.204Z,8.70
2019-05-03T19:32:40.233Z,8.70
2019-05-03T19:35:10.309Z,8.60
2019-05-03T19:37:40.590Z,8.60
2019-05-03T19:40:10.841Z,8.50
2019-05-03T19:42:40.921Z,8.50
2019-05-03T19:45:11.454Z,8.50
2019-05-03T19:47:41.776Z,8.50
2019-05-03T19:50:11.798Z,8.50
2019-05-03T19:53:00.389Z,8.50
2019-05-03T19:55:30.980Z,8.40
2019-05-03T19:58:01.002Z,8.40
2019-05-03T20:00:58.523Z,8.30
2019-05-03T20:03:35.307Z,8.30
2019-05-03T20:06:19.972Z,8.20
2019-05-03T20:08:57.774Z,8.10
2019-05-03T20:11:27.946Z,8.20
2019-05-03T20:13:57.923Z,8.20
2019-05-03T20:16:27.866Z,8.10
2019-05-03T20:18:57.844Z,8.20
2019-05-03T20:21:28.082Z,8.10
2019-05-03T20:23:58.557Z,8.10
2019-05-03T20:26:29.076Z,8.00
2019-05-03T20:28:59.022Z,8.10
2019-05-03T20:31:29.938Z,8.00
2019-05-03T20:34:00.161Z,8.10
2019-05-03T20:36:30.536Z,8.10
2019-05-03T20:39:00.486Z,8.00
2019-05-03T20:41:32.302Z,8.10
2019-05-03T20:44:19.798Z,8.00
2019-05-03T20:47:11.617Z,8.00
2019-05-03T20:49:41.894Z,7.90
2019-05-03T20:52:12.075Z,8.00
2019-05-03T20:54:41.880Z,7.90
2019-05-03T20:57:11.776Z,7.90
2019-05-03T20:59:46.003Z,7.70
2019-05-03T21:02:15.300Z,7.70
2019-05-03T21:04:46.491Z,7.70
2019-05-03T21:07:16.689Z,7.70
2019-05-03T21:09:46.918Z,7.70
2019-05-03T21:12:16.865Z,7.60
2019-05-03T21:14:46.773Z,7.60
2019-05-03T21:17:45.173Z,7.60
2019-05-03T21:20:34.699Z,7.60
2019-05-03T21:23:05.561Z,7.50
2019-05-03T21:26:05.728Z,7.50
2019-05-03T21:28:16.332Z,7.50
2019-05-03T21:30:46.901Z,7.40
2019-05-03T21:33:16.760Z,7.20
2019-05-03T21:35:46.920Z,7.10
2019-05-03T21:38:16.881Z,7.10
2019-05-03T21:40:47.094Z,7.00
2019-05-03T21:43:17.313Z,7.00
2019-05-03T21:45:51.750Z,6.90
2019-05-03T21:48:28.362Z,6.80
2019-05-03T21:50:58.256Z,6.80
2019-05-03T21:53:28.118Z,6.70
2019-05-03T21:55:58.375Z,6.70
2019-05-03T21:58:28.339Z,6.70
2019-05-03T22:01:05.333Z,6.60
2019-05-03T22:03:35.564Z,6.60
2019-05-03T22:06:05.870Z,6.60
2019-05-03T22:08:35.897Z,6.60
2019-05-03T22:11:05.889Z,6.60
2019-05-03T22:13:36.625Z,6.40
2019-05-03T22:16:22.126Z,6.40
2019-05-03T22:18:52.092Z,6.40
2019-05-03T22:21:37.041Z,6.30
2019-05-03T22:24:18.253Z,6.40
2019-05-03T22:27:15.155Z,6.50
2019-05-03T22:29:44.792Z,6.40
2019-05-03T22:32:15.571Z,6.40
2019-05-03T22:34:45.739Z,6.40
2019-05-03T22:37:16.600Z,6.40
2019-05-03T22:39:47.837Z,6.40
2019-05-03T22:42:17.973Z,6.30
2019-05-03T22:44:48.022Z,6.30
2019-05-03T22:47:18.069Z,6.30
2019-05-03T22:49:48.257Z,6.30
2019-05-03T22:52:18.172Z,6.30
2019-05-03T22:54:48.127Z,6.30
2019-05-03T22:57:18.061Z,6.40
2019-05-03T22:59:48.041Z,6.30
2019-05-03T23:02:18.061Z,6.20
2019-05-03T23:04:48.030Z,6.20
2019-05-03T23:07:17.913Z,6.20
2019-05-03T23:09:47.841Z,6.20
2019-05-03T23:12:17.728Z,6.10
2019-05-03T23:14:47.703Z,6.10
2019-05-03T23:17:17.876Z,6.10
2019-05-03T23:19:50.796Z,5.90
2019-05-03T23:22:26.997Z,5.90
2019-05-03T23:24:56.987Z,5.80
2019-05-03T23:27:26.940Z,5.80
2019-05-03T23:29:56.903Z,5.90
2019-05-03T23:32:26.935Z,5.70
2019-05-03T23:34:56.826Z,5.60
2019-05-03T23:37:26.808Z,5.30
2019-05-03T23:39:56.788Z,5.10
2019-05-03T23:42:26.759Z,5.00
2019-05-03T23:44:56.844Z,4.90
2019-05-03T23:47:35.551Z,4.90
2019-05-03T23:50:07.428Z,4.80
2019-05-03T23:52:38.304Z,4.80
2019-05-03T23:55:27.717Z,4.60
2019-05-03T23:57:57.738Z,4.60
